createdAt,value
2019-05-29T00:00:24.463Z,10.06
2019-05-29T00:02:53.506Z,10.04
2019-05-29T00:05:22.551Z,10.02
2019-05-29T00:07:51.565Z,10.00
2019-05-29T00:10:20.634Z,9.99
2019-05-29T00:12:49.930Z,9.96
2019-05-29T00:15:18.953Z,10.00
2019-05-29T00:17:48.638Z,9.99
2019-05-29T00:20:18.641Z,9.95
2019-05-29T00:22:48.072Z,9.91
2019-05-29T00:25:18.775Z,9.92
2019-05-29T00:27:47.873Z,9.91
2019-05-29T00:30:17.085Z,9.91
2019-05-29T00:32:46.487Z,9.88
2019-05-29T00:35:16.455Z,9.89
2019-05-29T00:37:45.526Z,9.91
2019-05-29T00:40:15.108Z,9.87
2019-05-29T00:42:44.554Z,9.86
2019-05-29T00:45:15.627Z,9.79
2019-05-29T00:47:44.735Z,9.79
2019-05-29T00:50:14.368Z,9.65
2019-05-29T00:52:43.387Z,9.62
2019-05-29T00:55:12.696Z,9.58
2019-05-29T00:57:42.102Z,9.52
2019-05-29T01:00:13.229Z,9.43
2019-05-29T01:02:42.484Z,9.37
2019-05-29T01:05:12.005Z,9.36
2019-05-29T01:07:41.092Z,9.31
2019-05-29T01:10:10.656Z,9.27
2019-05-29T01:12:39.707Z,9.22
2019-05-29T01:15:11.149Z,9.14
2019-05-29T01:17:40.540Z,9.14
2019-05-29T01:20:09.788Z,9.19
2019-05-29T01:22:39.454Z,9.19
2019-05-29T01:25:08.963Z,9.18
2019-05-29T01:27:38.249Z,9.18
2019-05-29T01:30:07.393Z,9.11
2019-05-29T01:32:36.789Z,9.04
2019-05-29T01:35:06.374Z,9.06
2019-05-29T01:37:35.389Z,9.08
2019-05-29T01:40:19.298Z,9.04
2019-05-29T01:42:36.831Z,9.05
2019-05-29T01:45:08.159Z,8.98
2019-05-29T01:47:36.869Z,8.88
2019-05-29T01:50:06.313Z,8.84
2019-05-29T01:52:35.333Z,8.84
2019-05-29T01:55:04.945Z,8.88
2019-05-29T01:57:33.951Z,8.83
2019-05-29T02:00:02.984Z,8.79
2019-05-29T02:02:32.064Z,8.69
2019-05-29T02:05:01.084Z,8.71
2019-05-29T02:07:30.092Z,8.64
2019-05-29T02:09:59.090Z,8.64
2019-05-29T02:12:28.132Z,8.68
2019-05-29T02:14:57.413Z,8.66
2019-05-29T02:17:26.464Z,8.58
2019-05-29T02:19:55.812Z,8.58
2019-05-29T02:22:25.520Z,8.56
2019-05-29T02:24:54.511Z,8.56
2019-05-29T02:27:23.554Z,8.48
2019-05-29T02:29:52.907Z,8.51
2019-05-29T02:32:23.477Z,8.51
2019-05-29T02:34:52.671Z,8.48
2019-05-29T02:37:22.278Z,8.48
2019-05-29T02:39:51.373Z,8.49
2019-05-29T02:42:20.975Z,8.46
2019-05-29T02:44:50.528Z,8.45
2019-05-29T02:47:19.523Z,8.50
2019-05-29T02:49:48.843Z,8.53
2019-05-29T02:52:17.871Z,8.56
2019-05-29T02:54:46.900Z,8.56
2019-05-29T02:57:15.911Z,8.51
2019-05-29T02:59:45.270Z,8.54
2019-05-29T03:02:14.308Z,8.60
2019-05-29T03:04:43.303Z,8.60
2019-05-29T03:07:12.321Z,8.55
2019-05-29T03:09:41.578Z,8.51
2019-05-29T03:12:10.910Z,8.54
2019-05-29T03:14:39.940Z,8.53
2019-05-29T03:17:09.316Z,8.54
2019-05-29T03:19:38.743Z,8.55
2019-05-29T03:22:08.018Z,8.59
2019-05-29T03:24:37.037Z,8.61
2019-05-29T03:27:06.187Z,8.56
2019-05-29T03:29:35.502Z,8.56
2019-05-29T03:32:04.582Z,8.54
2019-05-29T03:34:39.244Z,8.46
2019-05-29T03:37:04.656Z,8.48
2019-05-29T03:39:34.656Z,8.47
2019-05-29T03:42:03.725Z,8.39
2019-05-29T03:44:35.208Z,8.40
2019-05-29T03:47:03.887Z,8.38
2019-05-29T03:49:33.710Z,8.35
2019-05-29T03:52:04.149Z,8.43
2019-05-29T03:54:34.976Z,8.47
2019-05-29T03:57:03.915Z,8.51
2019-05-29T03:59:34.644Z,8.55
2019-05-29T04:02:03.767Z,8.49
2019-05-29T04:04:33.490Z,8.49
2019-05-29T04:07:03.252Z,8.43
2019-05-29T04:09:33.292Z,8.39
2019-05-29T04:12:02.536Z,8.38
2019-05-29T04:14:31.693Z,8.36
2019-05-29T04:17:01.515Z,8.34
2019-05-29T04:19:32.630Z,8.36
2019-05-29T04:22:07.694Z,8.37
2019-05-29T04:24:39.226Z,8.39
2019-05-29T04:27:10.432Z,8.47
2019-05-29T04:29:39.474Z,8.47
2019-05-29T04:32:09.230Z,8.54
2019-05-29T04:34:39.993Z,8.51
2019-05-29T04:37:09.127Z,8.42
2019-05-29T04:39:39.061Z,8.41
2019-05-29T04:42:08.563Z,8.33
2019-05-29T04:44:39.105Z,8.35
2019-05-29T04:47:11.550Z,8.40
2019-05-29T04:49:40.134Z,8.45
2019-05-29T04:52:09.195Z,8.54
2019-05-29T04:54:40.128Z,8.55
2019-05-29T04:57:09.693Z,8.63
2019-05-29T04:59:39.250Z,8.79
2019-05-29T05:02:08.442Z,8.78
2019-05-29T05:04:37.466Z,8.78
2019-05-29T05:07:06.825Z,8.84
2019-05-29T05:09:35.891Z,8.92
2019-05-29T05:12:04.907Z,8.97
2019-05-29T05:14:34.602Z,8.97
2019-05-29T05:17:04.661Z,9.09
2019-05-29T05:19:33.936Z,9.14
2019-05-29T05:22:03.044Z,9.30
2019-05-29T05:24:32.218Z,9.36
2019-05-29T05:27:01.601Z,9.43
2019-05-29T05:29:30.647Z,9.54
2019-05-29T05:32:00.024Z,9.68
2019-05-29T05:34:30.462Z,9.72
2019-05-29T05:37:00.241Z,9.79
2019-05-29T05:39:30.708Z,9.88
2019-05-29T05:42:00.301Z,9.96
2019-05-29T05:44:30.698Z,10.10
2019-05-29T05:46:59.807Z,10.14
2019-05-29T05:49:29.437Z,10.31
2019-05-29T05:51:58.847Z,10.42
2019-05-29T05:54:28.229Z,10.50
2019-05-29T05:56:57.256Z,10.46
2019-05-29T05:59:26.311Z,10.64
2019-05-29T06:01:55.673Z,10.71
2019-05-29T06:04:24.717Z,10.80
2019-05-29T06:06:54.177Z,10.91
2019-05-29T06:09:23.616Z,10.98
2019-05-29T06:11:52.955Z,11.13
2019-05-29T06:14:21.975Z,11.25
2019-05-29T06:16:51.079Z,11.39
2019-05-29T06:19:20.211Z,11.49
2019-05-29T06:21:49.233Z,11.54
2019-05-29T06:24:18.256Z,11.67
2019-05-29T06:26:47.876Z,11.73
2019-05-29T06:29:16.909Z,11.86
2019-05-29T06:31:45.919Z,11.85
2019-05-29T06:34:15.638Z,11.96
2019-05-29T06:36:48.045Z,12.11
2019-05-29T06:39:15.474Z,12.35
2019-05-29T06:41:44.877Z,12.25
2019-05-29T06:44:14.225Z,12.23
2019-05-29T06:46:45.318Z,12.32
2019-05-29T06:49:13.974Z,12.30
2019-05-29T06:51:43.457Z,12.48
2019-05-29T06:54:12.641Z,12.50
2019-05-29T06:56:41.971Z,12.61
2019-05-29T06:59:11.353Z,12.64
2019-05-29T07:01:41.712Z,12.69
2019-05-29T07:04:12.603Z,12.94
2019-05-29T07:06:42.748Z,12.82
2019-05-29T07:09:12.135Z,13.10
2019-05-29T07:11:41.537Z,13.33
2019-05-29T07:14:10.590Z,13.35
2019-05-29T07:16:45.321Z,13.43
2019-05-29T07:19:45.077Z,13.40
2019-05-29T07:21:42.724Z,13.52
2019-05-29T07:24:12.521Z,13.58
2019-05-29T07:26:43.109Z,13.77
2019-05-29T07:29:12.782Z,13.86
2019-05-29T07:31:42.938Z,13.93
2019-05-29T07:34:12.021Z,14.03
2019-05-29T07:36:41.955Z,14.21
2019-05-29T07:39:11.215Z,14.46
2019-05-29T07:41:41.429Z,14.63
2019-05-29T07:44:10.813Z,14.83
2019-05-29T07:46:40.112Z,14.89
2019-05-29T07:49:09.444Z,14.93
2019-05-29T07:51:38.533Z,15.14
2019-05-29T07:54:07.821Z,15.44
2019-05-29T07:56:36.834Z,15.54
2019-05-29T07:59:05.875Z,15.57
2019-05-29T08:01:34.929Z,15.90
2019-05-29T08:04:04.637Z,15.99
2019-05-29T08:06:34.020Z,16.33
2019-05-29T08:09:04.567Z,16.82
2019-05-29T08:11:33.572Z,16.61
2019-05-29T08:14:02.612Z,16.80
2019-05-29T08:16:31.904Z,16.99
2019-05-29T08:19:01.231Z,17.29
2019-05-29T08:21:30.267Z,17.45
2019-05-29T08:23:59.895Z,17.84
2019-05-29T08:26:28.919Z,18.10
2019-05-29T08:28:57.961Z,18.10
2019-05-29T08:31:26.972Z,18.45
2019-05-29T08:33:56.075Z,17.89
2019-05-29T08:36:25.144Z,18.38
2019-05-29T08:38:54.223Z,18.54
2019-05-29T08:41:23.293Z,19.04
2019-05-29T08:43:52.906Z,19.20
2019-05-29T08:46:22.287Z,19.29
2019-05-29T08:48:52.254Z,19.57
2019-05-29T08:51:21.639Z,19.82
2019-05-29T08:53:53.036Z,19.37
2019-05-29T08:56:21.457Z,19.39
2019-05-29T08:58:50.815Z,19.48
2019-05-29T09:01:19.898Z,20.15
2019-05-29T09:03:50.994Z,19.43
2019-05-29T09:06:20.318Z,20.14
2019-05-29T09:08:50.499Z,19.16
2019-05-29T09:11:20.391Z,19.16
2019-05-29T09:13:49.441Z,19.82
2019-05-29T09:16:18.573Z,20.11
2019-05-29T09:18:47.621Z,20.04
2019-05-29T09:21:18.026Z,19.95
2019-05-29T09:23:47.715Z,20.85
2019-05-29T09:26:21.192Z,19.87
2019-05-29T09:28:47.578Z,20.63
2019-05-29T09:31:18.411Z,20.32
2019-05-29T09:33:47.538Z,20.53
2019-05-29T09:36:17.504Z,21.28
2019-05-29T09:38:47.632Z,21.82
2019-05-29T09:41:17.442Z,22.07
2019-05-29T09:43:58.426Z,21.97
2019-05-29T09:46:18.842Z,21.97
2019-05-29T09:48:49.983Z,22.22
2019-05-29T09:51:21.591Z,22.42
2019-05-29T09:53:50.325Z,21.79
2019-05-29T09:56:19.676Z,21.88
2019-05-29T09:58:48.691Z,22.17
2019-05-29T10:01:23.883Z,22.30
2019-05-29T10:03:49.069Z,22.65
2019-05-29T10:06:18.400Z,22.45
2019-05-29T10:08:47.681Z,22.99
2019-05-29T10:11:17.075Z,23.17
2019-05-29T10:13:46.127Z,22.87
2019-05-29T10:16:15.375Z,23.01
2019-05-29T10:18:44.785Z,22.81
2019-05-29T10:21:14.158Z,22.63
2019-05-29T10:23:43.264Z,23.20
2019-05-29T10:26:12.836Z,23.37
2019-05-29T10:28:56.079Z,23.28
2019-05-29T10:31:12.914Z,22.89
2019-05-29T10:33:42.401Z,22.90
2019-05-29T10:36:11.490Z,23.19
2019-05-29T10:38:40.504Z,22.71
2019-05-29T10:41:10.359Z,22.82
2019-05-29T10:43:39.704Z,23.29
2019-05-29T10:46:09.304Z,23.06
2019-05-29T10:48:38.727Z,23.67
2019-05-29T10:51:07.809Z,24.22
2019-05-29T10:53:37.170Z,24.43
2019-05-29T10:56:06.555Z,23.87
2019-05-29T10:58:48.341Z,22.57
2019-05-29T11:01:07.199Z,21.77
2019-05-29T11:03:36.286Z,22.50
2019-05-29T11:06:05.409Z,22.45
2019-05-29T11:08:34.734Z,22.35
2019-05-29T11:11:03.782Z,22.16
2019-05-29T11:13:32.884Z,22.61
2019-05-29T11:16:01.905Z,21.71
2019-05-29T11:18:31.089Z,21.90
2019-05-29T11:21:00.159Z,22.66
2019-05-29T11:23:29.222Z,23.19
2019-05-29T11:25:58.284Z,23.18
2019-05-29T11:28:27.352Z,23.17
2019-05-29T11:30:57.243Z,23.26
2019-05-29T11:33:26.357Z,23.28
2019-05-29T11:36:07.412Z,24.76
2019-05-29T11:38:26.129Z,25.16
2019-05-29T11:41:20.469Z,24.63
2019-05-29T11:43:26.551Z,24.66
2019-05-29T11:45:57.271Z,24.64
2019-05-29T11:48:26.639Z,24.95
2019-05-29T11:50:56.174Z,25.31
2019-05-29T11:53:25.285Z,23.78
2019-05-29T11:55:55.713Z,22.88
2019-05-29T11:58:31.132Z,22.44
2019-05-29T12:00:57.170Z,23.56
2019-05-29T12:03:26.207Z,23.70
2019-05-29T12:05:55.450Z,24.82
2019-05-29T12:08:24.484Z,25.18
2019-05-29T12:10:53.506Z,25.21
2019-05-29T12:13:22.645Z,24.93
2019-05-29T12:15:51.954Z,25.50
2019-05-29T12:18:24.286Z,26.12
2019-05-29T12:20:52.148Z,25.97
2019-05-29T12:23:26.470Z,24.95
2019-05-29T12:26:10.316Z,23.85
2019-05-29T12:28:22.703Z,23.67
2019-05-29T12:30:53.343Z,23.38
2019-05-29T12:33:22.519Z,22.59
2019-05-29T12:35:52.781Z,23.93
2019-05-29T12:38:21.889Z,24.68
2019-05-29T12:40:51.208Z,24.81
2019-05-29T12:43:27.280Z,23.89
2019-05-29T12:45:51.525Z,23.79
2019-05-29T12:48:21.022Z,23.25
2019-05-29T12:50:50.443Z,22.87
2019-05-29T12:53:29.704Z,22.92
2019-05-29T12:55:50.606Z,23.22
2019-05-29T12:58:19.746Z,23.24
2019-05-29T13:00:49.021Z,23.36
2019-05-29T13:03:18.026Z,23.29
2019-05-29T13:05:47.119Z,22.67
2019-05-29T13:08:16.183Z,22.87
2019-05-29T13:10:45.234Z,24.11
2019-05-29T13:13:14.291Z,24.59
2019-05-29T13:15:43.294Z,25.28
2019-05-29T13:18:12.621Z,24.56
2019-05-29T13:20:41.868Z,25.42
2019-05-29T13:23:11.239Z,26.19
2019-05-29T13:25:40.318Z,25.85
2019-05-29T13:28:09.367Z,25.54
2019-05-29T13:30:39.458Z,25.63
2019-05-29T13:33:09.124Z,25.95
2019-05-29T13:35:38.494Z,25.73
2019-05-29T13:38:07.563Z,25.81
2019-05-29T13:40:36.596Z,25.26
2019-05-29T13:43:14.720Z,25.32
2019-05-29T13:45:36.961Z,25.26
2019-05-29T13:48:07.349Z,24.62
2019-05-29T13:50:36.816Z,23.87
2019-05-29T13:53:07.467Z,24.06
2019-05-29T13:55:36.617Z,23.42
2019-05-29T13:58:05.937Z,23.29
2019-05-29T14:00:35.435Z,22.97
2019-05-29T14:03:05.420Z,22.73
2019-05-29T14:05:35.658Z,22.83
2019-05-29T14:08:04.948Z,22.61
2019-05-29T14:10:33.918Z,22.11
2019-05-29T14:13:03.076Z,22.23
2019-05-29T14:15:32.778Z,22.09
2019-05-29T14:18:02.875Z,22.27
2019-05-29T14:20:32.073Z,22.39
2019-05-29T14:23:01.290Z,22.68
2019-05-29T14:25:30.438Z,23.31
2019-05-29T14:28:00.768Z,23.09
2019-05-29T14:30:30.053Z,22.59
2019-05-29T14:32:59.090Z,22.69
2019-05-29T14:35:28.163Z,22.67
2019-05-29T14:37:57.501Z,22.68
2019-05-29T14:40:27.101Z,22.53
2019-05-29T14:42:56.754Z,22.42
2019-05-29T14:45:25.762Z,22.39
2019-05-29T14:47:54.804Z,22.29
2019-05-29T14:50:24.722Z,22.25
2019-05-29T14:52:53.746Z,22.36
2019-05-29T14:55:22.781Z,22.40
2019-05-29T14:57:51.850Z,22.07
2019-05-29T15:00:25.515Z,22.01
2019-05-29T15:02:52.049Z,22.08
2019-05-29T15:05:21.275Z,21.74
2019-05-29T15:07:50.669Z,21.75
2019-05-29T15:10:26.763Z,21.60
2019-05-29T15:12:51.247Z,21.85
2019-05-29T15:15:22.123Z,22.00
2019-05-29T15:17:51.187Z,22.13
2019-05-29T15:20:20.770Z,22.16
2019-05-29T15:22:49.799Z,21.88
2019-05-29T15:25:23.918Z,21.64
2019-05-29T15:27:50.209Z,21.64
2019-05-29T15:30:23.152Z,21.55
2019-05-29T15:32:50.584Z,21.57
2019-05-29T15:35:20.275Z,21.34
2019-05-29T15:37:49.774Z,21.17
2019-05-29T15:40:18.888Z,21.12
2019-05-29T15:42:47.890Z,21.02
2019-05-29T15:45:18.376Z,21.01
2019-05-29T15:47:47.421Z,20.74
2019-05-29T15:50:17.951Z,20.55
2019-05-29T15:52:47.567Z,20.58
2019-05-29T15:55:28.332Z,20.26
2019-05-29T15:57:48.320Z,20.46
2019-05-29T16:00:19.034Z,20.37
2019-05-29T16:02:49.637Z,20.52
2019-05-29T16:05:19.606Z,20.40
2019-05-29T16:07:48.674Z,20.28
2019-05-29T16:10:20.838Z,20.44
2019-05-29T16:12:49.471Z,20.31
2019-05-29T16:15:19.501Z,20.31
2019-05-29T16:17:48.710Z,20.53
2019-05-29T16:20:18.711Z,20.27
2019-05-29T16:22:47.890Z,20.31
2019-05-29T16:25:18.983Z,20.25
2019-05-29T16:27:48.160Z,20.21
2019-05-29T16:30:18.021Z,20.18
2019-05-29T16:32:47.194Z,20.21
2019-05-29T16:35:17.199Z,20.16
2019-05-29T16:37:46.403Z,20.38
2019-05-29T16:40:18.166Z,20.39
2019-05-29T16:42:47.692Z,20.53
2019-05-29T16:45:18.323Z,20.52
2019-05-29T16:47:47.630Z,20.52
2019-05-29T16:50:19.368Z,20.28
2019-05-29T16:52:49.131Z,20.21
2019-05-29T16:55:19.356Z,20.32
2019-05-29T16:57:48.503Z,20.17
2019-05-29T17:00:19.717Z,20.12
2019-05-29T17:02:48.767Z,20.00
2019-05-29T17:05:20.322Z,19.83
2019-05-29T17:07:49.595Z,19.65
2019-05-29T17:10:22.522Z,19.77
2019-05-29T17:12:51.935Z,19.74
2019-05-29T17:15:22.704Z,19.66
2019-05-29T17:17:51.962Z,19.61
2019-05-29T17:20:37.017Z,19.60
2019-05-29T17:23:06.089Z,19.72
2019-05-29T17:25:35.380Z,19.76
2019-05-29T17:28:04.784Z,19.77
2019-05-29T17:30:33.799Z,19.68
2019-05-29T17:33:02.877Z,19.78
2019-05-29T17:35:32.212Z,19.54
2019-05-29T17:38:01.276Z,19.74
2019-05-29T17:40:30.336Z,19.60
2019-05-29T17:42:59.370Z,19.60
2019-05-29T17:45:28.409Z,19.73
2019-05-29T17:47:57.752Z,19.72
2019-05-29T17:50:27.124Z,19.68
2019-05-29T17:52:56.595Z,19.57
2019-05-29T17:55:26.513Z,19.49
2019-05-29T17:57:55.514Z,19.37
2019-05-29T18:00:24.885Z,19.18
2019-05-29T18:02:54.081Z,19.28
2019-05-29T18:05:24.564Z,19.04
2019-05-29T18:07:53.675Z,19.24
2019-05-29T18:10:24.130Z,19.16
2019-05-29T18:12:54.234Z,19.20
2019-05-29T18:15:23.770Z,18.98
2019-05-29T18:17:53.537Z,18.98
2019-05-29T18:20:23.638Z,19.15
2019-05-29T18:22:52.768Z,18.82
2019-05-29T18:25:21.983Z,18.86
2019-05-29T18:27:51.151Z,18.73
2019-05-29T18:30:20.354Z,19.00
2019-05-29T18:32:49.410Z,18.84
2019-05-29T18:35:19.036Z,18.82
2019-05-29T18:37:48.785Z,18.67
2019-05-29T18:40:20.222Z,18.87
2019-05-29T18:42:49.708Z,18.76
2019-05-29T18:45:21.594Z,18.67
2019-05-29T18:47:49.949Z,18.61
2019-05-29T18:50:21.374Z,18.59
2019-05-29T18:52:50.710Z,18.71
2019-05-29T18:55:20.760Z,18.62
2019-05-29T18:57:49.997Z,18.49
2019-05-29T19:00:19.328Z,18.30
2019-05-29T19:02:48.402Z,18.47
2019-05-29T19:05:17.558Z,18.32
2019-05-29T19:07:47.047Z,18.20
2019-05-29T19:10:17.963Z,18.26
2019-05-29T19:12:47.044Z,18.25
2019-05-29T19:15:16.242Z,18.19
2019-05-29T19:17:45.325Z,18.09
2019-05-29T19:20:15.870Z,18.05
2019-05-29T19:22:45.813Z,18.00
2019-05-29T19:25:15.676Z,17.96
2019-05-29T19:27:44.732Z,17.97
2019-05-29T19:30:13.823Z,17.89
2019-05-29T19:32:43.234Z,17.79
2019-05-29T19:35:12.937Z,17.76
2019-05-29T19:37:42.074Z,17.84
2019-05-29T19:40:12.313Z,17.80
2019-05-29T19:42:41.766Z,17.75
2019-05-29T19:45:13.909Z,17.66
2019-05-29T19:47:44.098Z,17.82
2019-05-29T19:50:14.126Z,17.70
2019-05-29T19:52:43.724Z,17.68
2019-05-29T19:55:13.305Z,17.74
2019-05-29T19:57:54.684Z,17.67
2019-05-29T20:00:13.835Z,17.67
2019-05-29T20:02:42.878Z,17.55
2019-05-29T20:05:12.856Z,17.50
2019-05-29T20:07:42.250Z,17.60
2019-05-29T20:10:11.678Z,17.67
2019-05-29T20:12:41.112Z,17.50
2019-05-29T20:15:10.840Z,17.46
2019-05-29T20:17:39.948Z,17.40
2019-05-29T20:20:09.829Z,17.33
2019-05-29T20:22:39.652Z,17.16
2019-05-29T20:25:08.894Z,17.15
2019-05-29T20:27:38.650Z,17.12
2019-05-29T20:30:08.669Z,17.13
2019-05-29T20:32:38.974Z,17.31
2019-05-29T20:35:08.130Z,17.21
2019-05-29T20:37:38.400Z,17.08
2019-05-29T20:40:07.956Z,17.11
2019-05-29T20:42:38.446Z,17.14
2019-05-29T20:45:08.127Z,16.93
2019-05-29T20:47:38.152Z,16.92
2019-05-29T20:50:07.342Z,17.01
2019-05-29T20:52:37.302Z,16.76
2019-05-29T20:55:07.015Z,16.68
2019-05-29T20:57:36.082Z,16.84
2019-05-29T21:00:06.264Z,16.63
2019-05-29T21:02:36.048Z,16.86
2019-05-29T21:05:05.893Z,16.77
2019-05-29T21:07:34.931Z,16.69
2019-05-29T21:10:04.897Z,16.62
2019-05-29T21:12:35.140Z,16.68
2019-05-29T21:15:05.023Z,16.71
2019-05-29T21:17:34.094Z,16.53
2019-05-29T21:20:03.163Z,16.67
2019-05-29T21:22:32.237Z,16.68
2019-05-29T21:25:08.318Z,16.66
2019-05-29T21:27:32.066Z,16.50
2019-05-29T21:30:01.086Z,16.64
2019-05-29T21:32:30.139Z,16.50
2019-05-29T21:34:59.497Z,16.63
2019-05-29T21:37:29.162Z,16.52
2019-05-29T21:39:58.458Z,16.39
2019-05-29T21:42:27.886Z,16.31
2019-05-29T21:44:56.987Z,16.20
2019-05-29T21:47:26.024Z,16.30
2019-05-29T21:49:55.361Z,16.22
2019-05-29T21:52:24.359Z,16.32
2019-05-29T21:54:53.418Z,16.30
2019-05-29T21:57:22.738Z,16.39
2019-05-29T21:59:51.748Z,16.13
2019-05-29T22:02:20.765Z,16.29
2019-05-29T22:04:49.757Z,16.05
2019-05-29T22:07:18.806Z,16.13
2019-05-29T22:09:48.163Z,16.18
2019-05-29T22:12:17.209Z,16.26
2019-05-29T22:14:46.240Z,16.28
2019-05-29T22:17:15.594Z,16.19
2019-05-29T22:19:44.608Z,16.13
2019-05-29T22:22:13.663Z,16.11
2019-05-29T22:24:42.968Z,15.83
2019-05-29T22:27:11.982Z,15.93
2019-05-29T22:29:41.148Z,15.90
2019-05-29T22:32:10.483Z,16.01
2019-05-29T22:34:39.484Z,16.03
2019-05-29T22:37:08.508Z,15.77
2019-05-29T22:39:38.259Z,15.69
2019-05-29T22:42:07.320Z,15.52
2019-05-29T22:44:36.366Z,15.71
2019-05-29T22:47:05.676Z,15.65
2019-05-29T22:49:34.686Z,15.62
2019-05-29T22:52:03.714Z,15.45
2019-05-29T22:54:32.748Z,15.28
2019-05-29T22:57:02.177Z,14.96
2019-05-29T22:59:32.366Z,14.84
2019-05-29T23:02:02.607Z,14.84
2019-05-29T23:04:31.973Z,14.73
2019-05-29T23:07:02.465Z,14.63
2019-05-29T23:09:31.616Z,14.52
2019-05-29T23:12:00.610Z,14.51
2019-05-29T23:14:29.645Z,14.37
2019-05-29T23:16:58.992Z,14.09
2019-05-29T23:19:28.023Z,14.05
2019-05-29T23:21:57.044Z,14.23
2019-05-29T23:24:26.054Z,14.35
2019-05-29T23:26:56.627Z,14.23
2019-05-29T23:29:25.720Z,14.23
2019-05-29T23:31:55.040Z,14.25
2019-05-29T23:34:24.088Z,14.36
2019-05-29T23:36:53.109Z,14.45
2019-05-29T23:39:22.497Z,14.29
2019-05-29T23:41:51.538Z,14.24
2019-05-29T23:44:20.572Z,14.35
2019-05-29T23:46:49.622Z,14.08
2019-05-29T23:49:19.068Z,14.14
2019-05-29T23:51:48.121Z,14.45
2019-05-29T23:54:17.142Z,14.35
2019-05-29T23:56:46.228Z,14.40
2019-05-29T23:59:15.648Z,14.35
